Fray Luis Beltran, Argentina
Current Conditions -  °F | °C
As of 11:00 PM on Monday 20 Oct 2014 (Local Time) from SAME Reporting Station
Clear Clear  
Wind Chill: 21°   Ceiling: Unl
Heat Index: 21°   Visibility: 6mi
Dew Point:   Wind: 5mph
Humidity: 38%   Direction: 90°E
Pressure: 29.97"   Gusts: NA
Location:  33.02°S, 68.65°W
Report Text: SAME 210200Z 09004KT CAVOK 21/06 Q1015
Loading
Personal Weather Stations






























Interactive Weather Map
Tropical Storm Tracking
New forecast layout! Learn more

10-Day Weather Forecast

Advertisements
Track Severe Weather on mobile